createdAt,value
2022-10-06T00:01:49.509Z,14.61
2022-10-06T00:04:19.015Z,14.78
2022-10-06T00:06:49.089Z,14.71
2022-10-06T00:09:18.828Z,14.62
2022-10-06T00:11:48.560Z,14.54
2022-10-06T00:14:18.005Z,14.51
2022-10-06T00:16:47.744Z,14.30
2022-10-06T00:19:17.483Z,14.44
2022-10-06T00:21:47.346Z,14.34
2022-10-06T00:24:16.867Z,14.56
2022-10-06T00:26:47.263Z,14.34
2022-10-06T00:29:17.010Z,14.39
2022-10-06T00:31:47.138Z,14.23
2022-10-06T00:34:16.898Z,14.18
2022-10-06T00:36:47.090Z,14.16
2022-10-06T00:39:16.816Z,14.02
2022-10-06T00:41:46.859Z,14.17
2022-10-06T00:44:16.630Z,14.19
2022-10-06T00:46:54.577Z,14.09
2022-10-06T00:49:36.155Z,14.19
2022-10-06T00:52:10.846Z,14.12
2022-10-06T00:54:41.939Z,14.10
2022-10-06T00:57:13.024Z,14.14
2022-10-06T00:59:43.075Z,14.12
2022-10-06T01:02:18.402Z,14.05
2022-10-06T01:04:52.995Z,14.07
2022-10-06T01:07:25.307Z,14.05
2022-10-06T01:09:57.146Z,14.07
2022-10-06T01:12:29.671Z,13.89
2022-10-06T01:14:59.476Z,14.11
2022-10-06T01:17:44.765Z,14.06
2022-10-06T01:20:19.429Z,13.87
2022-10-06T01:23:05.213Z,13.75
2022-10-06T01:25:35.775Z,13.99
2022-10-06T01:28:10.667Z,13.58
2022-10-06T01:30:51.029Z,13.64
2022-10-06T01:33:23.126Z,13.64
2022-10-06T01:35:54.449Z,13.83
2022-10-06T01:38:26.109Z,13.71
2022-10-06T01:40:57.738Z,13.58
2022-10-06T01:43:27.562Z,13.57
2022-10-06T01:45:59.195Z,13.67
2022-10-06T01:48:29.511Z,13.61
2022-10-06T01:51:00.651Z,13.69
2022-10-06T01:53:30.106Z,13.69
2022-10-06T01:56:02.823Z,13.48
2022-10-06T01:58:33.087Z,13.41
2022-10-06T02:01:07.497Z,13.50
2022-10-06T02:03:39.438Z,13.66
2022-10-06T02:06:12.272Z,13.50
2022-10-06T02:08:43.701Z,13.48
2022-10-06T02:11:13.966Z,13.53
2022-10-06T02:13:44.441Z,13.52
2022-10-06T02:16:14.463Z,13.52
2022-10-06T02:18:45.227Z,13.44
2022-10-06T02:21:19.720Z,13.40
2022-10-06T02:23:49.713Z,13.47
2022-10-06T02:26:19.963Z,13.44
2022-10-06T02:28:53.072Z,13.30
2022-10-06T02:31:24.636Z,13.26
2022-10-06T02:33:54.787Z,13.18
2022-10-06T02:36:24.568Z,13.35
2022-10-06T02:38:54.763Z,13.24
2022-10-06T02:41:25.624Z,13.24
2022-10-06T02:43:55.891Z,13.18
2022-10-06T02:46:25.900Z,13.12
2022-10-06T02:48:56.045Z,12.97
2022-10-06T02:51:26.157Z,13.03
2022-10-06T02:53:56.171Z,13.03
2022-10-06T02:56:27.081Z,13.07
2022-10-06T02:58:56.847Z,13.06
2022-10-06T03:01:29.599Z,13.01
2022-10-06T03:04:03.671Z,13.01
2022-10-06T03:06:33.557Z,12.96
2022-10-06T03:09:10.053Z,12.97
2022-10-06T03:11:45.508Z,12.67
2022-10-06T03:14:21.595Z,12.67
2022-10-06T03:16:48.146Z,12.84
2022-10-06T03:19:19.900Z,12.84
2022-10-06T03:21:50.061Z,12.93
2022-10-06T03:24:19.638Z,12.88
2022-10-06T03:26:51.103Z,12.88
2022-10-06T03:29:20.997Z,13.02
2022-10-06T03:31:52.765Z,13.02
2022-10-06T03:34:22.586Z,12.69
2022-10-06T03:36:52.015Z,12.75
2022-10-06T03:39:23.438Z,12.88
2022-10-06T03:41:53.245Z,12.85
2022-10-06T03:44:23.267Z,12.82
2022-10-06T03:46:53.766Z,12.77
2022-10-06T03:49:23.643Z,12.73
2022-10-06T03:51:55.404Z,12.59
2022-10-06T03:54:27.061Z,12.59
2022-10-06T03:56:57.521Z,12.60
2022-10-06T03:59:28.967Z,12.66
2022-10-06T04:02:00.198Z,12.57
2022-10-06T04:04:31.406Z,12.57
2022-10-06T04:07:02.936Z,12.45
2022-10-06T04:09:33.143Z,12.54
2022-10-06T04:12:03.421Z,12.42
2022-10-06T04:14:34.881Z,12.37
2022-10-06T04:17:05.285Z,12.44
2022-10-06T04:19:36.744Z,12.50
2022-10-06T04:22:08.834Z,12.40
2022-10-06T04:24:38.787Z,12.37
2022-10-06T04:27:25.995Z,12.40
2022-10-06T04:29:58.440Z,12.46
2022-10-06T04:32:29.352Z,12.37
2022-10-06T04:34:58.962Z,12.38
2022-10-06T04:37:29.255Z,12.29
2022-10-06T04:39:59.774Z,12.27
2022-10-06T04:45:04.769Z,12.18
2022-10-06T04:47:35.200Z,12.22
2022-10-06T04:50:07.609Z,12.25
2022-10-06T04:52:37.864Z,12.29
2022-10-06T04:55:08.457Z,12.14
2022-10-06T04:57:38.263Z,12.05
2022-10-06T05:00:23.003Z,12.07
2022-10-06T05:02:56.455Z,11.97
2022-10-06T05:05:26.375Z,11.96
2022-10-06T05:07:57.125Z,11.85
2022-10-06T05:10:28.393Z,11.97
2022-10-06T05:12:59.222Z,11.94
2022-10-06T05:15:29.104Z,11.94
2022-10-06T05:17:59.523Z,11.89
2022-10-06T05:20:29.131Z,12.00
2022-10-06T05:22:59.364Z,11.87
2022-10-06T05:25:29.187Z,11.95
2022-10-06T05:27:59.038Z,11.79
2022-10-06T05:30:28.922Z,11.65
2022-10-06T05:32:58.842Z,11.83
2022-10-06T05:35:28.945Z,11.89
2022-10-06T05:37:59.058Z,11.73
2022-10-06T05:40:28.957Z,11.87
2022-10-06T05:42:58.945Z,11.77
2022-10-06T05:45:28.984Z,11.78
2022-10-06T05:47:59.026Z,11.75
2022-10-06T05:50:28.655Z,11.65
2022-10-06T05:52:59.053Z,11.79
2022-10-06T05:55:29.056Z,11.61
2022-10-06T05:57:58.815Z,11.66
2022-10-06T06:00:28.627Z,11.58
2022-10-06T06:02:58.567Z,11.71
2022-10-06T06:05:28.466Z,11.60
2022-10-06T06:07:58.199Z,11.79
2022-10-06T06:10:28.076Z,11.68
2022-10-06T06:12:58.051Z,11.81
2022-10-06T06:15:47.006Z,11.84
2022-10-06T06:18:15.773Z,11.87
2022-10-06T06:20:45.536Z,11.72
2022-10-06T06:23:15.285Z,11.52
2022-10-06T06:25:45.032Z,11.66
2022-10-06T06:28:14.965Z,11.58
2022-10-06T06:30:45.497Z,11.61
2022-10-06T06:33:15.384Z,11.91
2022-10-06T06:35:45.300Z,12.03
2022-10-06T06:38:15.113Z,11.99
2022-10-06T06:40:44.645Z,11.97
2022-10-06T06:43:15.866Z,12.05
2022-10-06T06:46:04.985Z,12.00
2022-10-06T06:48:53.947Z,11.91
2022-10-06T06:51:24.640Z,11.86
2022-10-06T06:53:55.180Z,12.18
2022-10-06T06:56:24.824Z,12.24
2022-10-06T06:58:55.004Z,12.12
2022-10-06T07:01:25.331Z,12.17
2022-10-06T07:03:59.313Z,12.37
2022-10-06T07:06:31.871Z,12.57
2022-10-06T07:09:03.619Z,12.82
2022-10-06T07:11:36.088Z,12.79
2022-10-06T07:14:12.654Z,12.87
2022-10-06T07:17:02.787Z,12.73
2022-10-06T07:19:50.233Z,13.02
2022-10-06T07:22:41.606Z,12.99
2022-10-06T07:25:26.310Z,13.05
2022-10-06T07:28:00.364Z,13.42
2022-10-06T07:30:34.147Z,13.46
2022-10-06T07:33:05.810Z,13.57
2022-10-06T07:35:35.833Z,13.88
2022-10-06T07:38:07.340Z,13.77
2022-10-06T07:40:46.229Z,13.85
2022-10-06T07:43:11.871Z,13.95
2022-10-06T07:45:46.967Z,13.91
2022-10-06T07:48:37.983Z,13.88
2022-10-06T07:51:16.413Z,13.89
2022-10-06T07:53:48.159Z,14.02
2022-10-06T07:56:21.233Z,14.15
2022-10-06T07:58:52.406Z,14.30
2022-10-06T08:01:22.263Z,14.38
2022-10-06T08:03:52.022Z,14.25
2022-10-06T08:08:53.135Z,14.47
2022-10-06T08:11:23.183Z,14.55
2022-10-06T08:13:53.141Z,14.62
2022-10-06T08:16:27.248Z,14.68
2022-10-06T08:18:58.210Z,14.68
2022-10-06T08:21:31.211Z,14.98
2022-10-06T08:24:02.041Z,15.15
2022-10-06T08:26:33.200Z,14.98
2022-10-06T08:29:03.747Z,14.97
2022-10-06T08:31:33.912Z,14.55
2022-10-06T08:34:06.656Z,14.78
2022-10-06T08:36:35.783Z,14.90
2022-10-06T08:39:07.105Z,14.82
2022-10-06T08:41:50.089Z,14.94
2022-10-06T08:44:30.226Z,15.37
2022-10-06T08:47:03.718Z,15.35
2022-10-06T08:49:39.570Z,15.43
2022-10-06T08:52:21.224Z,15.48
2022-10-06T08:55:06.089Z,15.72
2022-10-06T08:57:56.902Z,15.67
2022-10-06T09:00:28.397Z,15.75
2022-10-06T09:02:58.133Z,16.12
2022-10-06T09:05:30.599Z,16.12
2022-10-06T09:08:25.948Z,16.21
2022-10-06T09:11:22.938Z,16.47
2022-10-06T09:13:56.463Z,16.44
2022-10-06T09:16:31.739Z,16.81
2022-10-06T09:19:08.708Z,17.21
2022-10-06T09:21:39.366Z,16.98
2022-10-06T09:24:19.542Z,17.27
2022-10-06T09:26:52.040Z,16.93
2022-10-06T09:29:21.837Z,17.40
2022-10-06T09:31:51.679Z,17.59
2022-10-06T09:34:49.997Z,17.29
2022-10-06T09:37:20.307Z,17.68
2022-10-06T09:39:52.101Z,17.59
2022-10-06T09:42:25.032Z,17.59
2022-10-06T09:45:04.896Z,17.75
2022-10-06T09:47:39.198Z,17.86
2022-10-06T09:50:23.504Z,17.81
2022-10-06T09:53:03.543Z,17.97
2022-10-06T09:55:38.886Z,18.03
2022-10-06T09:58:33.655Z,17.44
2022-10-06T10:01:12.086Z,17.43
2022-10-06T10:04:15.547Z,17.66
2022-10-06T10:06:27.473Z,17.83
2022-10-06T10:09:22.416Z,17.59
2022-10-06T10:12:25.024Z,17.23
2022-10-06T10:15:12.689Z,17.28
2022-10-06T10:17:50.871Z,17.44
2022-10-06T10:20:38.098Z,17.79
2022-10-06T10:23:30.928Z,17.38
2022-10-06T10:29:09.006Z,18.58
2022-10-06T10:32:04.063Z,18.26
2022-10-06T10:34:54.690Z,18.14
2022-10-06T10:37:33.168Z,18.46
2022-10-06T10:40:14.958Z,18.53
2022-10-06T10:42:50.493Z,17.86
2022-10-06T10:45:26.370Z,18.56
2022-10-06T10:47:58.363Z,18.35
2022-10-06T10:50:36.793Z,18.26
2022-10-06T10:53:09.652Z,18.41
2022-10-06T10:55:42.523Z,17.73
2022-10-06T10:58:24.988Z,17.77
2022-10-06T11:00:57.863Z,17.52
2022-10-06T11:03:27.700Z,17.79
2022-10-06T11:06:08.520Z,17.95
2022-10-06T11:08:58.321Z,18.39
2022-10-06T11:11:54.130Z,18.39
2022-10-06T11:14:30.254Z,18.97
2022-10-06T11:17:25.394Z,19.24
2022-10-06T11:20:22.206Z,18.79
2022-10-06T11:23:12.917Z,18.11
2022-10-06T11:25:51.291Z,18.11
2022-10-06T11:28:33.379Z,18.42
2022-10-06T11:31:20.189Z,18.72
2022-10-06T11:33:55.617Z,19.24
2022-10-06T11:36:58.181Z,18.41
2022-10-06T11:39:46.228Z,18.41
2022-10-06T11:42:25.796Z,18.69
2022-10-06T11:45:05.027Z,18.65
2022-10-06T11:47:41.547Z,18.39
2022-10-06T11:50:33.551Z,18.29
2022-10-06T11:53:03.805Z,18.68
2022-10-06T11:55:33.756Z,19.26
2022-10-06T12:00:46.958Z,18.75
2022-10-06T12:03:34.894Z,18.11
2022-10-06T12:06:04.657Z,18.11
2022-10-06T12:08:41.994Z,18.27
2022-10-06T12:11:40.180Z,17.94
2022-10-06T12:15:31.952Z,17.77
2022-10-06T12:19:30.193Z,17.87
2022-10-06T12:22:23.725Z,17.82
2022-10-06T12:25:08.108Z,17.90
2022-10-06T12:27:58.815Z,18.40
2022-10-06T12:31:04.391Z,18.46
2022-10-06T12:33:41.888Z,18.25
2022-10-06T12:36:32.643Z,18.20
2022-10-06T12:39:05.539Z,17.89
2022-10-06T12:42:03.098Z,17.89
2022-10-06T12:44:48.636Z,18.14
2022-10-06T12:47:36.084Z,17.80
2022-10-06T12:53:03.249Z,18.54
2022-10-06T12:55:56.800Z,18.17
2022-10-06T12:58:32.561Z,18.87
2022-10-06T13:01:13.651Z,18.94
2022-10-06T13:03:46.488Z,18.55
2022-10-06T13:06:19.768Z,18.41
2022-10-06T13:09:05.016Z,18.70
2022-10-06T13:11:34.662Z,18.48
2022-10-06T13:14:13.455Z,18.47
2022-10-06T13:16:46.091Z,18.61
2022-10-06T13:19:18.910Z,18.95
2022-10-06T13:21:48.793Z,18.99
2022-10-06T13:24:24.048Z,19.33
2022-10-06T13:26:53.935Z,19.46
2022-10-06T13:29:26.386Z,19.46
2022-10-06T13:31:56.699Z,19.75
2022-10-06T13:34:39.508Z,20.01
2022-10-06T13:39:41.557Z,20.10
2022-10-06T13:42:16.389Z,19.82
2022-10-06T13:44:49.421Z,19.91
2022-10-06T13:47:20.652Z,19.85
2022-10-06T13:49:57.310Z,19.65
2022-10-06T13:52:38.732Z,19.50
2022-10-06T13:55:23.987Z,19.91
2022-10-06T13:58:04.872Z,20.16
2022-10-06T14:00:54.960Z,19.53
2022-10-06T14:03:36.992Z,19.52
2022-10-06T14:06:09.821Z,19.40
2022-10-06T14:08:40.178Z,19.35
2022-10-06T14:11:11.240Z,19.82
2022-10-06T14:13:58.980Z,19.97
2022-10-06T14:16:30.174Z,20.00
2022-10-06T14:19:02.782Z,20.06
2022-10-06T14:21:41.788Z,19.96
2022-10-06T14:24:20.606Z,20.07
2022-10-06T14:26:51.096Z,20.15
2022-10-06T14:29:21.272Z,20.29
2022-10-06T14:31:51.366Z,20.46
2022-10-06T14:34:22.707Z,20.00
2022-10-06T14:36:54.550Z,19.89
2022-10-06T14:39:24.287Z,19.71
2022-10-06T14:41:54.061Z,19.87
2022-10-06T14:44:23.795Z,20.05
2022-10-06T14:46:54.107Z,19.59
2022-10-06T14:49:25.301Z,19.65
2022-10-06T14:51:56.404Z,19.65
2022-10-06T14:54:26.139Z,19.39
2022-10-06T14:56:55.930Z,19.38
2022-10-06T14:59:26.444Z,19.53
2022-10-06T15:01:56.166Z,19.78
2022-10-06T15:04:27.671Z,19.39
2022-10-06T15:07:15.014Z,19.29
2022-10-06T15:09:45.057Z,19.20
2022-10-06T15:12:14.785Z,19.35
2022-10-06T15:14:44.545Z,19.75
2022-10-06T15:17:14.267Z,19.32
2022-10-06T15:19:44.067Z,18.85
2022-10-06T15:22:14.161Z,19.20
2022-10-06T15:24:45.923Z,18.88
2022-10-06T15:27:33.268Z,19.26
2022-10-06T15:30:03.053Z,19.32
2022-10-06T15:32:32.972Z,18.98
2022-10-06T15:35:02.995Z,18.94
2022-10-06T15:37:32.470Z,18.76
2022-10-06T15:40:04.147Z,18.88
2022-10-06T15:42:34.205Z,18.81
2022-10-06T15:45:07.509Z,18.79
2022-10-06T15:47:35.893Z,18.42
2022-10-06T15:50:07.358Z,18.56
2022-10-06T15:52:37.091Z,18.87
2022-10-06T15:55:10.437Z,18.69
2022-10-06T15:57:40.220Z,18.78
2022-10-06T16:00:10.643Z,18.87
2022-10-06T16:02:43.400Z,18.96
2022-10-06T16:05:14.792Z,18.65
2022-10-06T16:07:44.614Z,18.71
2022-10-06T16:10:16.800Z,18.50
2022-10-06T16:12:47.960Z,18.39
2022-10-06T16:15:17.709Z,18.32
2022-10-06T16:17:47.728Z,18.17
2022-10-06T16:20:18.966Z,18.12
2022-10-06T16:22:48.747Z,18.05
2022-10-06T16:25:18.189Z,17.82
2022-10-06T16:27:47.953Z,17.64
2022-10-06T16:30:19.126Z,17.84
2022-10-06T16:32:48.884Z,17.71
2022-10-06T16:35:18.699Z,17.71
2022-10-06T16:37:49.818Z,17.62
2022-10-06T16:40:19.292Z,17.42
2022-10-06T16:42:48.757Z,17.51
2022-10-06T16:45:18.559Z,17.36
2022-10-06T16:47:48.251Z,17.16
2022-10-06T16:50:18.448Z,17.29
2022-10-06T16:52:48.251Z,17.17
2022-10-06T16:55:18.300Z,16.94
2022-10-06T16:57:47.732Z,16.96
2022-10-06T17:00:18.477Z,16.82
2022-10-06T17:02:48.192Z,16.84
2022-10-06T17:05:18.004Z,16.72
2022-10-06T17:07:47.747Z,16.67
2022-10-06T17:10:20.896Z,16.35
2022-10-06T17:12:49.671Z,16.39
2022-10-06T17:15:19.548Z,16.21
2022-10-06T17:17:49.596Z,15.97
2022-10-06T17:20:19.081Z,15.99
2022-10-06T17:22:50.171Z,15.87
2022-10-06T17:25:19.918Z,15.74
2022-10-06T17:27:49.658Z,15.47
2022-10-06T17:30:19.384Z,15.42
2022-10-06T17:32:49.152Z,15.41
2022-10-06T17:35:19.759Z,15.43
2022-10-06T17:37:50.173Z,15.46
2022-10-06T17:40:20.594Z,15.38
2022-10-06T17:42:50.315Z,15.17
2022-10-06T17:45:21.357Z,15.16
2022-10-06T17:47:51.698Z,14.96
2022-10-06T17:50:22.546Z,15.03
2022-10-06T17:52:52.296Z,14.78
2022-10-06T17:55:22.498Z,14.70
2022-10-06T17:57:52.404Z,14.86
2022-10-06T18:00:22.352Z,14.59
2022-10-06T18:02:55.313Z,14.57
2022-10-06T18:05:27.494Z,14.49
2022-10-06T18:07:58.478Z,14.52
2022-10-06T18:10:46.009Z,14.44
2022-10-06T18:13:15.866Z,14.40
2022-10-06T18:15:45.958Z,14.23
2022-10-06T18:18:15.770Z,14.23
2022-10-06T18:20:46.787Z,14.33
2022-10-06T18:23:16.947Z,14.19
2022-10-06T18:25:46.696Z,13.96
2022-10-06T18:28:16.182Z,13.96
2022-10-06T18:30:51.297Z,13.92
2022-10-06T18:36:15.006Z,13.81
2022-10-06T18:38:31.183Z,13.81
2022-10-06T18:41:03.669Z,13.79
2022-10-06T18:43:33.626Z,13.69
2022-10-06T18:46:23.445Z,13.53
2022-10-06T18:48:56.134Z,13.53
2022-10-06T18:51:36.908Z,13.52
2022-10-06T18:54:13.387Z,13.59
2022-10-06T18:56:46.313Z,13.48
2022-10-06T18:59:16.563Z,13.52
2022-10-06T19:01:49.037Z,13.49
2022-10-06T19:04:21.060Z,13.49
2022-10-06T19:06:54.090Z,13.23
2022-10-06T19:09:26.252Z,13.32
2022-10-06T19:11:58.210Z,13.32
2022-10-06T19:14:34.281Z,13.34
2022-10-06T19:17:10.607Z,13.27
2022-10-06T19:19:40.620Z,13.21
2022-10-06T19:22:14.171Z,13.13
2022-10-06T19:24:47.208Z,13.05
2022-10-06T19:27:20.707Z,13.22
2022-10-06T19:29:56.795Z,13.04
2022-10-06T19:32:31.340Z,13.10
2022-10-06T19:35:01.130Z,13.10
2022-10-06T19:37:31.930Z,12.98
2022-10-06T19:40:01.978Z,13.05
2022-10-06T19:42:50.836Z,12.91
2022-10-06T19:45:20.854Z,12.90
2022-10-06T19:47:51.357Z,12.85
2022-10-06T19:50:21.349Z,12.73
2022-10-06T19:52:51.599Z,12.77
2022-10-06T19:55:22.799Z,12.71
2022-10-06T19:57:52.884Z,12.66
2022-10-06T20:00:23.213Z,12.68
2022-10-06T20:02:52.949Z,12.50
2022-10-06T20:05:22.770Z,12.47
2022-10-06T20:07:52.583Z,12.53
2022-10-06T20:10:22.340Z,12.56
2022-10-06T20:12:52.124Z,12.63
2022-10-06T20:15:22.533Z,12.46
2022-10-06T20:17:52.286Z,12.51
2022-10-06T20:20:22.040Z,12.41
2022-10-06T20:22:53.868Z,12.35
2022-10-06T20:25:23.509Z,12.42
2022-10-06T20:27:53.277Z,12.49
2022-10-06T20:30:23.240Z,12.57
2022-10-06T20:32:53.461Z,12.45
2022-10-06T20:35:23.214Z,12.45
2022-10-06T20:37:53.039Z,12.44
2022-10-06T20:40:42.488Z,12.47
2022-10-06T20:43:12.289Z,12.27
2022-10-06T20:45:42.098Z,12.19
2022-10-06T20:48:14.245Z,12.12
2022-10-06T20:50:44.515Z,12.05
2022-10-06T20:53:14.762Z,12.09
2022-10-06T20:55:52.346Z,12.02
2022-10-06T20:58:22.100Z,12.10
2022-10-06T21:00:51.994Z,12.01
2022-10-06T21:03:22.099Z,12.05
2022-10-06T21:05:52.538Z,12.04
2022-10-06T21:08:23.033Z,12.03
2022-10-06T21:11:03.215Z,12.01
2022-10-06T21:13:32.713Z,12.04
2022-10-06T21:16:03.029Z,12.06
2022-10-06T21:18:33.662Z,12.05
2022-10-06T21:21:07.194Z,11.98
2022-10-06T21:23:42.207Z,11.96
2022-10-06T21:26:15.564Z,11.96
2022-10-06T21:28:45.843Z,11.86
2022-10-06T21:31:18.146Z,12.03
2022-10-06T21:33:50.253Z,11.96
2022-10-06T21:36:24.877Z,11.88
2022-10-06T21:38:59.373Z,11.75
2022-10-06T21:41:32.308Z,11.79
2022-10-06T21:44:04.668Z,11.84
2022-10-06T21:46:39.404Z,12.01
2022-10-06T21:49:11.877Z,11.92
2022-10-06T21:51:43.615Z,11.92
2022-10-06T21:54:15.167Z,11.92
2022-10-06T21:56:45.151Z,11.89
2022-10-06T21:59:15.058Z,11.82
2022-10-06T22:01:46.635Z,11.71
2022-10-06T22:04:17.092Z,11.78
2022-10-06T22:06:48.860Z,11.84
2022-10-06T22:09:21.230Z,11.70
2022-10-06T22:11:51.214Z,11.85
2022-10-06T22:14:21.069Z,11.58
2022-10-06T22:16:51.106Z,11.69
2022-10-06T22:19:21.216Z,11.66
2022-10-06T22:21:51.023Z,11.68
2022-10-06T22:24:22.498Z,11.72
2022-10-06T22:26:52.223Z,11.80
2022-10-06T22:29:22.328Z,11.61
2022-10-06T22:31:52.153Z,11.61
2022-10-06T22:34:21.888Z,11.68
2022-10-06T22:36:51.649Z,11.43
2022-10-06T22:39:21.373Z,11.55
2022-10-06T22:41:51.119Z,11.44
2022-10-06T22:44:20.552Z,11.49
2022-10-06T22:46:50.338Z,11.37
2022-10-06T22:49:19.926Z,11.40
2022-10-06T22:51:49.374Z,11.27
2022-10-06T22:54:22.102Z,11.51
2022-10-06T22:56:51.842Z,11.35
2022-10-06T22:59:21.576Z,11.40
2022-10-06T23:01:53.260Z,11.14
2022-10-06T23:04:23.296Z,11.14
2022-10-06T23:06:52.796Z,11.29
2022-10-06T23:09:22.516Z,11.31
2022-10-06T23:11:52.349Z,11.23
2022-10-06T23:14:21.918Z,11.22
2022-10-06T23:16:51.751Z,11.05
2022-10-06T23:19:21.608Z,11.07
2022-10-06T23:21:51.401Z,11.07
2022-10-06T23:24:21.455Z,11.12
2022-10-06T23:26:51.193Z,11.14
2022-10-06T23:29:21.308Z,11.17
2022-10-06T23:31:51.210Z,11.15
2022-10-06T23:34:20.838Z,11.19
2022-10-06T23:36:50.575Z,11.09
2022-10-06T23:39:20.315Z,11.12
2022-10-06T23:41:50.414Z,11.03
2022-10-06T23:44:19.941Z,10.99
2022-10-06T23:46:49.754Z,11.01
2022-10-06T23:49:19.846Z,11.07
2022-10-06T23:51:49.607Z,11.28
2022-10-06T23:54:19.416Z,11.06
2022-10-06T23:56:50.505Z,11.00
2022-10-06T23:59:21.073Z,10.89
